Jette Viking Hv77 — 5QEP — position and weather

sailwx.info

Track history (hours):
 
Tides and Currents Weather Stations Pressure Air Temp Water Temp Dewpoint Dewpoint Depression Visibility Wind Speed Wind Dir Waves Ship Positions

Jette Viking Hv77

Last reported at 2016-Jun-28 02:33 UTC. Time now 2016-Jun-30 01:32 UTC.
Position N 55°54' E 010°25'.

Length 16 m.

Type: Fishing. MMSI: 220046000.

Date/timePositionNaut miles runAvg speedWind from/ knotsBaromVisibWave heightAir tempDewpointWater temp
2016-Jun-28 02:33N 55°54' E 010°25'8 8.2
2016-Jun-28 01:33N 56°02' E 010°33'8 7.8
2016-Jun-28 00:33N 56°07' E 010°43'9 8.7
2016-Jun-27 23:33N 56°14' E 010°51'78 3.1
2016-Jun-26 22:24N 57°32' E 010°44'2 2.6
2016-Jun-26 21:33N 57°30' E 010°45'3 2.6
2016-Jun-26 20:21N 57°27' E 010°45'9 0.4
2016-Jun-25 23:27N 57°30' E 010°30'0 0.0
2016-Jun-25 21:17N 57°30' E 010°30'0 0.0
2016-Jun-25 20:33N 57°30' E 010°30'0 0.0
2016-Jun-25 19:33N 57°30' E 010°30'0 0.0
2016-Jun-25 18:33N 57°30' E 010°30'0 0.0
2016-Jun-25 17:33N 57°30' E 010°30'0 0.0
2016-Jun-25 16:33N 57°30' E 010°30'0 0.0
2016-Jun-25 15:33N 57°30' E 010°30'0 0.0
2016-Jun-25 14:33N 57°30' E 010°30'0 0.0
2016-Jun-25 13:22N 57°30' E 010°30'0 0.0
2016-Jun-25 10:14N 57°30' E 010°30'0 0.0
2016-Jun-25 08:27N 57°30' E 010°30'0 0.0
2016-Jun-24 23:27N 57°30' E 010°30'0 0.0
2016-Jun-24 19:32N 57°30' E 010°30'0 0.0
2016-Jun-24 18:31N 57°30' E 010°30'0 0.0
2016-Jun-24 17:32N 57°30' E 010°30'8 0.5
2016-Jun-24 02:20N 57°28' E 010°45'4 0.8
2016-Jun-23 21:32N 57°32' E 010°45'8 0.9
2016-Jun-23 12:32N 57°30' E 010°30'0 0.0
2016-Jun-23 10:33N 57°30' E 010°30'0 0.0
2016-Jun-23 09:29N 57°30' E 010°30'3 0.5
2016-Jun-23 03:15N 57°29' E 010°36'5 7.3
2016-Jun-23 02:29N 57°26' E 010°44'4 1.8
2016-Jun-23 00:24N 57°30' E 010°43'2 2.6
2016-Jun-22 23:31N 57°32' E 010°43'4 1.4
2016-Jun-22 20:26N 57°28' E 010°45'8 0.8
2016-Jun-22 09:33N 57°30' E 010°30'0 0.0
2016-Jun-22 08:32N 57°30' E 010°30'0 0.0
2016-Jun-22 07:25N 57°30' E 010°30'0 0.0
2016-Jun-22 06:33N 57°30' E 010°30'0 0.0
2016-Jun-22 05:33N 57°30' E 010°30'0 0.0
2016-Jun-22 04:31N 57°30' E 010°30'2 1.8
2016-Jun-22 03:33N 57°29' E 010°33'6 6.1
2016-Jun-22 02:34N 57°26' E 010°43'1 1.1
2016-Jun-22 01:31N 57°28' E 010°44'3 0.7
2016-Jun-21 21:33N 57°30' E 010°44'3 2.6
2016-Jun-21 20:33N 57°28' E 010°45'2 2.2
2016-Jun-21 19:26N 57°27' E 010°41'6 1.1
2016-Jun-21 13:30N 57°30' E 010°30'  
Track history (hours):
 
Tides and Currents Weather Stations Pressure Air Temp Water Temp Dewpoint Dewpoint Depression Visibility Wind Speed Wind Dir Waves Ship Positions

Jette Viking Hv77

Last reported at 2016-Jun-28 02:33 UTC. Time now 2016-Jun-30 01:32 UTC.
Position N 55°54' E 010°25'.

Length 16 m.

Type: Fishing. MMSI: 220046000.

Date/timePositionNaut miles runAvg speedWind from/ knotsBaromVisibWave heightAir tempDewpointWater temp
2016-Jun-28 02:33N 55°54' E 010°25'8 8.2
2016-Jun-28 01:33N 56°02' E 010°33'8 7.8
2016-Jun-28 00:33N 56°07' E 010°43'9 8.7
2016-Jun-27 23:33N 56°14' E 010°51'78 3.1
2016-Jun-26 22:24N 57°32' E 010°44'2 2.6
2016-Jun-26 21:33N 57°30' E 010°45'3 2.6
2016-Jun-26 20:21N 57°27' E 010°45'9 0.4
2016-Jun-25 23:27N 57°30' E 010°30'0 0.0
2016-Jun-25 21:17N 57°30' E 010°30'0 0.0
2016-Jun-25 20:33N 57°30' E 010°30'0 0.0
2016-Jun-25 19:33N 57°30' E 010°30'0 0.0
2016-Jun-25 18:33N 57°30' E 010°30'0 0.0
2016-Jun-25 17:33N 57°30' E 010°30'0 0.0
2016-Jun-25 16:33N 57°30' E 010°30'0 0.0
2016-Jun-25 15:33N 57°30' E 010°30'0 0.0
2016-Jun-25 14:33N 57°30' E 010°30'0 0.0
2016-Jun-25 13:22N 57°30' E 010°30'0 0.0
2016-Jun-25 10:14N 57°30' E 010°30'0 0.0
2016-Jun-25 08:27N 57°30' E 010°30'0 0.0
2016-Jun-24 23:27N 57°30' E 010°30'0 0.0
2016-Jun-24 19:32N 57°30' E 010°30'0 0.0
2016-Jun-24 18:31N 57°30' E 010°30'0 0.0
2016-Jun-24 17:32N 57°30' E 010°30'8 0.5
2016-Jun-24 02:20N 57°28' E 010°45'4 0.8
2016-Jun-23 21:32N 57°32' E 010°45'8 0.9
2016-Jun-23 12:32N 57°30' E 010°30'0 0.0
2016-Jun-23 10:33N 57°30' E 010°30'0 0.0
2016-Jun-23 09:29N 57°30' E 010°30'3 0.5
2016-Jun-23 03:15N 57°29' E 010°36'5 7.3
2016-Jun-23 02:29N 57°26' E 010°44'4 1.8
2016-Jun-23 00:24N 57°30' E 010°43'2 2.6
2016-Jun-22 23:31N 57°32' E 010°43'4 1.4
2016-Jun-22 20:26N 57°28' E 010°45'8 0.8
2016-Jun-22 09:33N 57°30' E 010°30'0 0.0
2016-Jun-22 08:32N 57°30' E 010°30'0 0.0
2016-Jun-22 07:25N 57°30' E 010°30'0 0.0
2016-Jun-22 06:33N 57°30' E 010°30'0 0.0
2016-Jun-22 05:33N 57°30' E 010°30'0 0.0
2016-Jun-22 04:31N 57°30' E 010°30'2 1.8
2016-Jun-22 03:33N 57°29' E 010°33'6 6.1
2016-Jun-22 02:34N 57°26' E 010°43'1 1.1
2016-Jun-22 01:31N 57°28' E 010°44'3 0.7
2016-Jun-21 21:33N 57°30' E 010°44'3 2.6
2016-Jun-21 20:33N 57°28' E 010°45'2 2.2
2016-Jun-21 19:26N 57°27' E 010°41'6 1.1
2016-Jun-21 13:30N 57°30' E 010°30'  

Dump ship's entire track history